sensor_id;sensor_type;location;lat;lon;timestamp;pressure;altitude;pressure_sealevel;temperature;humidity
1652;BME280;823;49.028;8.454;2022-07-03T00:04:37;100531.09;;;23.70;45.11
1652;BME280;823;49.028;8.454;2022-07-03T00:09:38;100534.69;;;23.69;44.62
1652;BME280;823;49.028;8.454;2022-07-03T00:14:38;100539.94;;;23.59;46.01
1652;BME280;823;49.028;8.454;2022-07-03T00:19:38;100530.88;;;23.52;45.50
1652;BME280;823;49.028;8.454;2022-07-03T00:24:53;100532.69;;;23.51;45.09
1652;BME280;823;49.028;8.454;2022-07-03T00:29:59;100535.66;;;23.37;45.88
1652;BME280;823;49.028;8.454;2022-07-03T00:35:00;100537.59;;;23.35;46.89
1652;BME280;823;49.028;8.454;2022-07-03T00:40:02;100540.03;;;23.26;46.51
1652;BME280;823;49.028;8.454;2022-07-03T00:45:06;100541.28;;;23.22;47.33
1652;BME280;823;49.028;8.454;2022-07-03T00:50:08;100540.19;;;23.25;47.00
1652;BME280;823;49.028;8.454;2022-07-03T00:55:14;100545.25;;;23.17;46.99
1652;BME280;823;49.028;8.454;2022-07-03T01:00:16;100543.97;;;23.00;47.11
1652;BME280;823;49.028;8.454;2022-07-03T01:05:33;100552.41;;;23.47;46.27
1652;BME280;823;49.028;8.454;2022-07-03T01:15:52;100550.94;;;23.01;47.79
1652;BME280;823;49.028;8.454;2022-07-03T01:21:08;100558.91;;;22.89;47.87
1652;BME280;823;49.028;8.454;2022-07-03T01:26:09;100561.72;;;22.76;48.58
1652;BME280;823;49.028;8.454;2022-07-03T01:31:19;100551.41;;;22.73;48.16
1652;BME280;823;49.028;8.454;2022-07-03T01:36:21;100550.09;;;22.68;48.26
1652;BME280;823;49.028;8.454;2022-07-03T01:41:24;100544.19;;;22.54;48.65
1652;BME280;823;49.028;8.454;2022-07-03T01:46:30;100531.28;;;22.40;49.50
1652;BME280;823;49.028;8.454;2022-07-03T01:51:34;100532.00;;;22.42;49.15
1652;BME280;823;49.028;8.454;2022-07-03T01:56:34;100539.56;;;22.35;49.31
1652;BME280;823;49.028;8.454;2022-07-03T02:01:47;100529.72;;;22.37;49.35
1652;BME280;823;49.028;8.454;2022-07-03T02:12:35;100528.88;;;22.25;50.14
1652;BME280;823;49.028;8.454;2022-07-03T02:17:47;100529.84;;;22.24;50.01
1652;BME280;823;49.028;8.454;2022-07-03T02:23:07;100528.53;;;22.19;49.83
1652;BME280;823;49.028;8.454;2022-07-03T02:28:32;100527.22;;;22.13;50.44
1652;BME280;823;49.028;8.454;2022-07-03T02:33:35;100531.34;;;21.94;50.85
1652;BME280;823;49.028;8.454;2022-07-03T02:38:40;100537.44;;;21.95;51.01
1652;BME280;823;49.028;8.454;2022-07-03T02:44:10;100539.81;;;21.98;50.55
1652;BME280;823;49.028;8.454;2022-07-03T02:49:38;100542.19;;;22.01;50.27
1652;BME280;823;49.028;8.454;2022-07-03T02:54:45;100545.91;;;21.87;51.55
1652;BME280;823;49.028;8.454;2022-07-03T03:00:02;100548.53;;;21.99;51.24
1652;BME280;823;49.028;8.454;2022-07-03T03:05:13;100549.16;;;22.02;50.28
1652;BME280;823;49.028;8.454;2022-07-03T03:10:20;100550.84;;;22.03;50.83
1652;BME280;823;49.028;8.454;2022-07-03T03:15:24;100558.00;;;22.01;50.78
1652;BME280;823;49.028;8.454;2022-07-03T03:20:30;100561.38;;;22.03;50.19
1652;BME280;823;49.028;8.454;2022-07-03T03:25:31;100558.13;;;22.00;49.97
1652;BME280;823;49.028;8.454;2022-07-03T03:30:32;100568.22;;;21.94;50.54
1652;BME280;823;49.028;8.454;2022-07-03T03:35:36;100572.03;;;21.90;50.65
1652;BME280;823;49.028;8.454;2022-07-03T03:40:36;100568.06;;;21.85;50.56
1652;BME280;823;49.028;8.454;2022-07-03T03:45:37;100578.59;;;21.73;50.99
1652;BME280;823;49.028;8.454;2022-07-03T03:50:37;100575.81;;;21.75;51.56
1652;BME280;823;49.028;8.454;2022-07-03T03:55:49;100583.25;;;21.70;52.39
1652;BME280;823;49.028;8.454;2022-07-03T04:00:51;100588.53;;;21.81;51.96
1652;BME280;823;49.028;8.454;2022-07-03T04:05:54;100595.50;;;21.82;52.27
1652;BME280;823;49.028;8.454;2022-07-03T04:10:54;100597.16;;;21.94;51.87
1652;BME280;823;49.028;8.454;2022-07-03T04:15:55;100601.00;;;22.02;51.40
1652;BME280;823;49.028;8.454;2022-07-03T04:20:55;100602.88;;;22.11;51.30
1652;BME280;823;49.028;8.454;2022-07-03T04:26:02;100600.97;;;22.13;51.49
1652;BME280;823;49.028;8.454;2022-07-03T04:31:02;100595.34;;;22.18;51.32
1652;BME280;823;49.028;8.454;2022-07-03T04:36:03;100608.63;;;22.27;51.26
1652;BME280;823;49.028;8.454;2022-07-03T04:41:04;100605.19;;;22.38;51.03
1652;BME280;823;49.028;8.454;2022-07-03T04:46:05;100608.53;;;22.52;50.65
1652;BME280;823;49.028;8.454;2022-07-03T04:51:05;100609.44;;;22.62;50.41
1652;BME280;823;49.028;8.454;2022-07-03T04:56:06;100613.84;;;22.73;50.50
1652;BME280;823;49.028;8.454;2022-07-03T05:01:06;100609.63;;;22.82;49.97
1652;BME280;823;49.028;8.454;2022-07-03T05:06:06;100613.28;;;23.02;49.18
1652;BME280;823;49.028;8.454;2022-07-03T05:11:07;100623.56;;;23.16;49.61
1652;BME280;823;49.028;8.454;2022-07-03T05:16:08;100612.72;;;23.31;48.86
1652;BME280;823;49.028;8.454;2022-07-03T05:21:08;100620.22;;;23.35;48.89
1652;BME280;823;49.028;8.454;2022-07-03T05:26:09;100615.22;;;23.53;48.27
1652;BME280;823;49.028;8.454;2022-07-03T05:31:09;100616.69;;;23.67;47.81
1652;BME280;823;49.028;8.454;2022-07-03T05:36:10;100615.59;;;23.91;47.33
1652;BME280;823;49.028;8.454;2022-07-03T05:41:11;100614.69;;;24.11;47.18
1652;BME280;823;49.028;8.454;2022-07-03T05:46:11;100611.13;;;24.22;46.96
1652;BME280;823;49.028;8.454;2022-07-03T05:51:11;100615.34;;;24.35;46.30
1652;BME280;823;49.028;8.454;2022-07-03T05:56:12;100623.44;;;24.43;46.01
1652;BME280;823;49.028;8.454;2022-07-03T06:01:12;100620.31;;;24.69;46.01
1652;BME280;823;49.028;8.454;2022-07-03T06:06:12;100619.19;;;24.81;45.45
1652;BME280;823;49.028;8.454;2022-07-03T06:11:13;100621.88;;;25.01;44.73
1652;BME280;823;49.028;8.454;2022-07-03T06:16:13;100625.22;;;25.12;43.80
1652;BME280;823;49.028;8.454;2022-07-03T06:21:13;100630.13;;;25.37;43.62
1652;BME280;823;49.028;8.454;2022-07-03T06:26:14;100630.22;;;25.55;43.93
1652;BME280;823;49.028;8.454;2022-07-03T06:31:15;100635.50;;;25.64;43.00
1652;BME280;823;49.028;8.454;2022-07-03T06:36:15;100639.09;;;25.73;42.30
1652;BME280;823;49.028;8.454;2022-07-03T06:41:16;100644.66;;;25.80;41.95
1652;BME280;823;49.028;8.454;2022-07-03T06:46:16;100649.94;;;25.90;42.00
1652;BME280;823;49.028;8.454;2022-07-03T06:51:16;100654.38;;;25.99;42.02
1652;BME280;823;49.028;8.454;2022-07-03T06:56:17;100661.75;;;25.95;40.83
1652;BME280;823;49.028;8.454;2022-07-03T07:01:17;100651.16;;;26.05;40.72
1652;BME280;823;49.028;8.454;2022-07-03T07:06:17;100642.44;;;26.23;39.79
1652;BME280;823;49.028;8.454;2022-07-03T07:11:18;100645.72;;;26.34;40.02
1652;BME280;823;49.028;8.454;2022-07-03T07:16:18;100634.56;;;26.59;39.21
1652;BME280;823;49.028;8.454;2022-07-03T07:21:18;100638.56;;;26.73;38.92
1652;BME280;823;49.028;8.454;2022-07-03T07:26:18;100630.13;;;26.95;37.74
1652;BME280;823;49.028;8.454;2022-07-03T07:31:20;100636.13;;;27.15;38.63
1652;BME280;823;49.028;8.454;2022-07-03T07:36:20;100637.19;;;27.41;38.72
1652;BME280;823;49.028;8.454;2022-07-03T07:41:21;100628.31;;;27.50;37.92
1652;BME280;823;49.028;8.454;2022-07-03T07:46:21;100627.78;;;27.73;37.50
1652;BME280;823;49.028;8.454;2022-07-03T07:51:22;100631.50;;;27.88;35.67
1652;BME280;823;49.028;8.454;2022-07-03T07:56:23;100634.53;;;27.93;35.50
1652;BME280;823;49.028;8.454;2022-07-03T08:01:24;100627.13;;;28.05;35.13
1652;BME280;823;49.028;8.454;2022-07-03T08:06:42;100629.84;;;28.22;34.82
1652;BME280;823;49.028;8.454;2022-07-03T08:11:43;100635.06;;;28.40;34.71
1652;BME280;823;49.028;8.454;2022-07-03T08:16:43;100620.97;;;28.47;34.21
1652;BME280;823;49.028;8.454;2022-07-03T08:21:45;100620.47;;;28.52;34.22
1652;BME280;823;49.028;8.454;2022-07-03T08:26:45;100628.81;;;28.57;34.34
1652;BME280;823;49.028;8.454;2022-07-03T08:31:46;100633.16;;;28.58;33.93
1652;BME280;823;49.028;8.454;2022-07-03T08:36:46;100633.31;;;28.57;33.47
1652;BME280;823;49.028;8.454;2022-07-03T08:41:48;100626.97;;;28.58;33.06
1652;BME280;823;49.028;8.454;2022-07-03T08:46:50;100633.69;;;28.78;34.15
1652;BME280;823;49.028;8.454;2022-07-03T08:51:52;100626.09;;;29.08;34.53
1652;BME280;823;49.028;8.454;2022-07-03T08:56:53;100629.91;;;29.14;33.08
1652;BME280;823;49.028;8.454;2022-07-03T09:01:54;100623.94;;;29.28;31.82
1652;BME280;823;49.028;8.454;2022-07-03T09:06:54;100632.59;;;29.47;32.33
1652;BME280;823;49.028;8.454;2022-07-03T09:11:55;100620.88;;;29.64;31.75
1652;BME280;823;49.028;8.454;2022-07-03T09:16:56;100624.84;;;29.77;30.57
1652;BME280;823;49.028;8.454;2022-07-03T09:21:56;100617.69;;;29.94;29.32
1652;BME280;823;49.028;8.454;2022-07-03T09:26:56;100615.59;;;30.12;29.63
1652;BME280;823;49.028;8.454;2022-07-03T09:31:57;100616.06;;;30.24;28.50
1652;BME280;823;49.028;8.454;2022-07-03T09:36:58;100625.19;;;30.30;28.40
1652;BME280;823;49.028;8.454;2022-07-03T09:42:03;100617.38;;;30.28;28.12
1652;BME280;823;49.028;8.454;2022-07-03T09:47:20;100608.19;;;30.22;28.47
1652;BME280;823;49.028;8.454;2022-07-03T09:52:31;100624.66;;;30.34;27.85
1652;BME280;823;49.028;8.454;2022-07-03T09:57:32;100610.44;;;30.42;27.98
1652;BME280;823;49.028;8.454;2022-07-03T10:02:32;100608.44;;;30.44;27.81
1652;BME280;823;49.028;8.454;2022-07-03T10:07:49;100599.16;;;30.32;26.35
1652;BME280;823;49.028;8.454;2022-07-03T10:12:51;100610.78;;;30.39;27.22
1652;BME280;823;49.028;8.454;2022-07-03T10:17:54;100606.75;;;30.43;25.39
1652;BME280;823;49.028;8.454;2022-07-03T10:22:56;100608.28;;;30.37;25.78
1652;BME280;823;49.028;8.454;2022-07-03T10:27:57;100599.22;;;30.55;26.05
1652;BME280;823;49.028;8.454;2022-07-03T10:32:57;100592.69;;;30.81;26.13
1652;BME280;823;49.028;8.454;2022-07-03T10:43:06;100593.97;;;30.85;26.08
1652;BME280;823;49.028;8.454;2022-07-03T10:54:17;100587.22;;;31.20;25.06
1652;BME280;823;49.028;8.454;2022-07-03T10:59:18;100577.47;;;31.42;26.14
1652;BME280;823;49.028;8.454;2022-07-03T11:04:19;100566.50;;;31.52;24.63
1652;BME280;823;49.028;8.454;2022-07-03T11:09:19;100571.97;;;31.74;25.61
1652;BME280;823;49.028;8.454;2022-07-03T11:14:20;100572.63;;;31.61;25.13
1652;BME280;823;49.028;8.454;2022-07-03T11:19:27;100568.34;;;31.82;25.51
1652;BME280;823;49.028;8.454;2022-07-03T11:24:37;100561.72;;;31.92;24.47
1652;BME280;823;49.028;8.454;2022-07-03T11:29:38;100551.28;;;31.98;24.91
1652;BME280;823;49.028;8.454;2022-07-03T11:34:42;100543.16;;;31.91;25.04
1652;BME280;823;49.028;8.454;2022-07-03T11:39:44;100542.50;;;32.19;25.38
1652;BME280;823;49.028;8.454;2022-07-03T11:44:46;100530.50;;;32.15;24.13
1652;BME280;823;49.028;8.454;2022-07-03T11:49:47;100534.81;;;32.31;24.18
1652;BME280;823;49.028;8.454;2022-07-03T11:54:52;100526.72;;;32.46;24.24
1652;BME280;823;49.028;8.454;2022-07-03T12:00:03;100525.31;;;32.50;24.15
1652;BME280;823;49.028;8.454;2022-07-03T12:05:13;100524.03;;;32.46;22.59
1652;BME280;823;49.028;8.454;2022-07-03T12:10:14;100520.38;;;32.53;24.43
1652;BME280;823;49.028;8.454;2022-07-03T12:15:15;100514.91;;;32.62;24.23
1652;BME280;823;49.028;8.454;2022-07-03T12:20:15;100526.25;;;32.64;24.19
1652;BME280;823;49.028;8.454;2022-07-03T12:25:16;100516.69;;;32.76;25.50
1652;BME280;823;49.028;8.454;2022-07-03T12:30:20;100513.84;;;32.78;23.82
1652;BME280;823;49.028;8.454;2022-07-03T12:35:23;100502.84;;;32.94;23.70
1652;BME280;823;49.028;8.454;2022-07-03T12:40:23;100509.72;;;33.10;24.08
1652;BME280;823;49.028;8.454;2022-07-03T12:45:25;100504.16;;;33.12;23.83
1652;BME280;823;49.028;8.454;2022-07-03T12:50:26;100488.03;;;33.05;23.57
1652;BME280;823;49.028;8.454;2022-07-03T12:55:28;100488.66;;;33.35;24.16
1652;BME280;823;49.028;8.454;2022-07-03T13:00:28;100489.91;;;33.39;23.89
1652;BME280;823;49.028;8.454;2022-07-03T13:05:28;100478.59;;;33.37;23.63
1652;BME280;823;49.028;8.454;2022-07-03T13:10:29;100477.63;;;33.58;23.30
1652;BME280;823;49.028;8.454;2022-07-03T13:15:29;100474.81;;;33.73;24.64
1652;BME280;823;49.028;8.454;2022-07-03T13:20:30;100470.47;;;33.72;23.45
1652;BME280;823;49.028;8.454;2022-07-03T13:25:31;100471.28;;;33.73;23.30
1652;BME280;823;49.028;8.454;2022-07-03T13:30:32;100468.50;;;34.01;23.78
1652;BME280;823;49.028;8.454;2022-07-03T13:35:33;100475.13;;;34.05;22.72
1652;BME280;823;49.028;8.454;2022-07-03T13:40:33;100470.16;;;34.02;22.89
1652;BME280;823;49.028;8.454;2022-07-03T13:45:35;100470.16;;;34.02;22.79
1652;BME280;823;49.028;8.454;2022-07-03T13:50:35;100471.22;;;34.15;23.11
1652;BME280;823;49.028;8.454;2022-07-03T13:55:35;100464.41;;;34.19;22.66
1652;BME280;823;49.028;8.454;2022-07-03T14:00:36;100452.41;;;34.21;21.63
1652;BME280;823;49.028;8.454;2022-07-03T14:05:36;100456.81;;;34.36;21.43
1652;BME280;823;49.028;8.454;2022-07-03T14:10:36;100459.69;;;34.34;21.50
1652;BME280;823;49.028;8.454;2022-07-03T14:15:37;100450.78;;;34.20;21.39
1652;BME280;823;49.028;8.454;2022-07-03T14:20:37;100444.56;;;34.20;21.55
1652;BME280;823;49.028;8.454;2022-07-03T14:25:37;100439.41;;;34.11;21.51
1652;BME280;823;49.028;8.454;2022-07-03T14:30:37;100439.22;;;34.06;21.73
1652;BME280;823;49.028;8.454;2022-07-03T14:35:56;100440.66;;;34.02;23.27
1652;BME280;823;49.028;8.454;2022-07-03T14:40:56;100438.56;;;33.98;22.14
1652;BME280;823;49.028;8.454;2022-07-03T14:45:56;100440.44;;;34.04;21.53
1652;BME280;823;49.028;8.454;2022-07-03T14:50:57;100436.31;;;34.01;21.84
1652;BME280;823;49.028;8.454;2022-07-03T14:55:57;100437.13;;;34.08;22.17
1652;BME280;823;49.028;8.454;2022-07-03T15:00:57;100423.94;;;34.07;22.11
1652;BME280;823;49.028;8.454;2022-07-03T15:06:01;100429.50;;;34.05;22.77
1652;BME280;823;49.028;8.454;2022-07-03T15:11:07;100428.66;;;33.91;21.75
1652;BME280;823;49.028;8.454;2022-07-03T15:16:07;100420.78;;;33.76;22.07
1652;BME280;823;49.028;8.454;2022-07-03T15:21:09;100412.13;;;33.81;22.30
1652;BME280;823;49.028;8.454;2022-07-03T15:26:12;100413.72;;;33.75;22.38
1652;BME280;823;49.028;8.454;2022-07-03T15:31:12;100408.41;;;33.82;22.81
1652;BME280;823;49.028;8.454;2022-07-03T15:36:13;100416.22;;;33.70;22.96
1652;BME280;823;49.028;8.454;2022-07-03T15:41:20;100412.16;;;33.33;22.06
1652;BME280;823;49.028;8.454;2022-07-03T15:46:35;100413.44;;;33.43;22.91
1652;BME280;823;49.028;8.454;2022-07-03T15:56:42;100402.25;;;33.26;22.88
1652;BME280;823;49.028;8.454;2022-07-03T16:01:53;100396.47;;;33.30;23.63
1652;BME280;823;49.028;8.454;2022-07-03T16:07:12;100391.78;;;33.38;23.62
1652;BME280;823;49.028;8.454;2022-07-03T16:12:14;100389.56;;;33.69;23.45
1652;BME280;823;49.028;8.454;2022-07-03T16:17:21;100389.78;;;33.67;23.33
1652;BME280;823;49.028;8.454;2022-07-03T16:22:21;100381.13;;;33.72;22.49
1652;BME280;823;49.028;8.454;2022-07-03T16:27:23;100381.53;;;33.75;22.77
1652;BME280;823;49.028;8.454;2022-07-03T16:32:26;100375.56;;;33.73;22.27
1652;BME280;823;49.028;8.454;2022-07-03T16:37:37;100376.84;;;33.77;23.57
1652;BME280;823;49.028;8.454;2022-07-03T16:42:42;100376.19;;;33.75;22.67
1652;BME280;823;49.028;8.454;2022-07-03T16:47:44;100374.72;;;33.73;23.23
1652;BME280;823;49.028;8.454;2022-07-03T16:52:45;100371.19;;;33.59;23.32
1652;BME280;823;49.028;8.454;2022-07-03T16:57:47;100372.06;;;33.66;23.34
1652;BME280;823;49.028;8.454;2022-07-03T17:02:48;100374.13;;;33.71;23.94
1652;BME280;823;49.028;8.454;2022-07-03T17:07:50;100368.69;;;33.51;24.74
1652;BME280;823;49.028;8.454;2022-07-03T17:12:51;100363.34;;;33.51;23.38
1652;BME280;823;49.028;8.454;2022-07-03T17:17:59;100354.25;;;33.38;22.80
1652;BME280;823;49.028;8.454;2022-07-03T17:23:05;100357.97;;;33.44;23.65
1652;BME280;823;49.028;8.454;2022-07-03T17:28:06;100354.63;;;33.35;23.16
1652;BME280;823;49.028;8.454;2022-07-03T17:33:07;100351.31;;;33.26;23.04
1652;BME280;823;49.028;8.454;2022-07-03T17:38:09;100342.66;;;33.31;24.16
1652;BME280;823;49.028;8.454;2022-07-03T17:43:10;100341.22;;;33.29;24.12
1652;BME280;823;49.028;8.454;2022-07-03T17:48:10;100337.31;;;33.31;25.03
1652;BME280;823;49.028;8.454;2022-07-03T17:53:10;100336.41;;;33.17;25.39
1652;BME280;823;49.028;8.454;2022-07-03T17:58:14;100338.84;;;33.05;24.32
1652;BME280;823;49.028;8.454;2022-07-03T18:03:14;100337.59;;;33.01;25.12
1652;BME280;823;49.028;8.454;2022-07-03T18:08:18;100323.53;;;32.92;26.14
1652;BME280;823;49.028;8.454;2022-07-03T18:13:29;100325.16;;;32.87;25.76
1652;BME280;823;49.028;8.454;2022-07-03T18:23:43;100314.63;;;32.79;25.46
1652;BME280;823;49.028;8.454;2022-07-03T18:28:46;100313.59;;;32.80;26.33
1652;BME280;823;49.028;8.454;2022-07-03T18:33:47;100316.03;;;32.74;26.83
1652;BME280;823;49.028;8.454;2022-07-03T18:38:48;100315.97;;;32.61;27.21
1652;BME280;823;49.028;8.454;2022-07-03T18:43:48;100309.50;;;32.49;27.32
1652;BME280;823;49.028;8.454;2022-07-03T18:48:49;100313.16;;;32.41;28.95
1652;BME280;823;49.028;8.454;2022-07-03T18:59:00;100304.75;;;32.16;28.21
1652;BME280;823;49.028;8.454;2022-07-03T19:04:09;100301.94;;;32.02;29.12
1652;BME280;823;49.028;8.454;2022-07-03T19:09:16;100303.47;;;31.90;32.49
1652;BME280;823;49.028;8.454;2022-07-03T19:14:21;100298.16;;;31.68;31.33
1652;BME280;823;49.028;8.454;2022-07-03T19:19:25;100299.00;;;31.54;33.26
1652;BME280;823;49.028;8.454;2022-07-03T19:24:25;100296.78;;;31.36;31.41
1652;BME280;823;49.028;8.454;2022-07-03T19:29:26;100310.13;;;31.14;32.13
1652;BME280;823;49.028;8.454;2022-07-03T19:34:26;100305.06;;;30.89;32.24
1652;BME280;823;49.028;8.454;2022-07-03T19:39:26;100306.66;;;30.69;36.26
1652;BME280;823;49.028;8.454;2022-07-03T19:44:27;100326.06;;;30.48;36.63
1652;BME280;823;49.028;8.454;2022-07-03T19:49:27;100332.19;;;30.33;35.14
1652;BME280;823;49.028;8.454;2022-07-03T19:54:27;100338.78;;;30.22;35.43
1652;BME280;823;49.028;8.454;2022-07-03T19:59:28;100339.31;;;30.18;34.39
1652;BME280;823;49.028;8.454;2022-07-03T20:04:28;100347.75;;;30.06;36.57
1652;BME280;823;49.028;8.454;2022-07-03T20:09:28;100354.53;;;29.94;36.99
1652;BME280;823;49.028;8.454;2022-07-03T20:14:28;100365.28;;;29.78;38.36
1652;BME280;823;49.028;8.454;2022-07-03T20:19:29;100366.50;;;29.67;38.00
1652;BME280;823;49.028;8.454;2022-07-03T20:24:29;100379.41;;;29.55;38.14
1652;BME280;823;49.028;8.454;2022-07-03T20:29:34;100379.97;;;29.42;36.87
1652;BME280;823;49.028;8.454;2022-07-03T20:34:36;100380.19;;;29.32;38.87
1652;BME280;823;49.028;8.454;2022-07-03T20:39:37;100392.88;;;29.22;39.50
1652;BME280;823;49.028;8.454;2022-07-03T20:44:38;100397.41;;;29.13;38.95
1652;BME280;823;49.028;8.454;2022-07-03T20:49:40;100413.69;;;29.10;38.98
1652;BME280;823;49.028;8.454;2022-07-03T20:54:40;100418.56;;;28.98;38.75
1652;BME280;823;49.028;8.454;2022-07-03T20:59:40;100443.91;;;28.86;39.20
1652;BME280;823;49.028;8.454;2022-07-03T21:04:40;100441.88;;;28.80;39.36
1652;BME280;823;49.028;8.454;2022-07-03T21:09:41;100451.22;;;28.76;39.60
1652;BME280;823;49.028;8.454;2022-07-03T21:14:41;100453.41;;;28.72;39.63
1652;BME280;823;49.028;8.454;2022-07-03T21:19:41;100462.72;;;28.68;39.87
1652;BME280;823;49.028;8.454;2022-07-03T21:24:42;100473.97;;;28.62;40.68
1652;BME280;823;49.028;8.454;2022-07-03T21:29:42;100477.16;;;28.57;40.93
1652;BME280;823;49.028;8.454;2022-07-03T21:34:45;100489.13;;;28.45;38.85
1652;BME280;823;49.028;8.454;2022-07-03T21:39:45;100488.44;;;28.34;37.20
1652;BME280;823;49.028;8.454;2022-07-03T21:44:45;100489.28;;;28.35;37.92
1652;BME280;823;49.028;8.454;2022-07-03T21:49:45;100491.75;;;28.28;39.12
1652;BME280;823;49.028;8.454;2022-07-03T21:54:46;100501.56;;;28.19;39.61
1652;BME280;823;49.028;8.454;2022-07-03T21:59:46;100511.81;;;28.06;41.97
1652;BME280;823;49.028;8.454;2022-07-03T22:04:46;100513.94;;;27.94;41.31
1652;BME280;823;49.028;8.454;2022-07-03T22:09:46;100513.38;;;27.82;39.92
1652;BME280;823;49.028;8.454;2022-07-03T22:14:47;100534.41;;;27.67;41.12
1652;BME280;823;49.028;8.454;2022-07-03T22:19:47;100526.66;;;27.48;38.03
1652;BME280;823;49.028;8.454;2022-07-03T22:24:47;100532.91;;;27.39;37.05
1652;BME280;823;49.028;8.454;2022-07-03T22:29:48;100539.00;;;27.31;36.95
1652;BME280;823;49.028;8.454;2022-07-03T22:34:48;100553.38;;;27.20;36.61
1652;BME280;823;49.028;8.454;2022-07-03T22:39:49;100557.84;;;27.19;36.85
1652;BME280;823;49.028;8.454;2022-07-03T22:44:49;100555.38;;;27.26;36.99
1652;BME280;823;49.028;8.454;2022-07-03T22:49:49;100565.34;;;27.24;37.85
1652;BME280;823;49.028;8.454;2022-07-03T22:54:51;100567.69;;;27.27;38.81
1652;BME280;823;49.028;8.454;2022-07-03T22:59:51;100588.56;;;27.22;37.27
1652;BME280;823;49.028;8.454;2022-07-03T23:04:51;100576.16;;;27.05;37.02
1652;BME280;823;49.028;8.454;2022-07-03T23:09:52;100588.53;;;26.96;36.92
1652;BME280;823;49.028;8.454;2022-07-03T23:14:52;100594.28;;;26.91;37.49
1652;BME280;823;49.028;8.454;2022-07-03T23:19:53;100602.47;;;26.80;37.06
1652;BME280;823;49.028;8.454;2022-07-03T23:24:53;100588.06;;;26.82;37.10
1652;BME280;823;49.028;8.454;2022-07-03T23:29:53;100596.78;;;26.75;37.21
1652;BME280;823;49.028;8.454;2022-07-03T23:34:54;100605.03;;;26.72;37.36
1652;BME280;823;49.028;8.454;2022-07-03T23:39:54;100618.50;;;26.60;37.53
1652;BME280;823;49.028;8.454;2022-07-03T23:44:54;100616.81;;;26.59;38.15
1652;BME280;823;49.028;8.454;2022-07-03T23:49:55;100619.53;;;26.49;37.43
1652;BME280;823;49.028;8.454;2022-07-03T23:55:14;100621.78;;;26.44;38.48
